sensor_id;sensor_type;location;lat;lon;timestamp;P1;P2;P0
77515;PMS5003;66627;29.424;-98.496;2024-03-17T00:00:39;6;6;
77515;PMS5003;66627;29.424;-98.496;2024-03-17T00:03:04;6;6;
77515;PMS5003;66627;29.424;-98.496;2024-03-17T00:05:29;6;6;
77515;PMS5003;66627;29.424;-98.496;2024-03-17T00:07:54;9;6;
77515;PMS5003;66627;29.424;-98.496;2024-03-17T00:10:20;8;6;
77515;PMS5003;66627;29.424;-98.496;2024-03-17T00:12:44;6;6;
77515;PMS5003;66627;29.424;-98.496;2024-03-17T00:15:10;9;7;
77515;PMS5003;66627;29.424;-98.496;2024-03-17T00:17:36;7;7;
77515;PMS5003;66627;29.424;-98.496;2024-03-17T00:20:00;7;7;
77515;PMS5003;66627;29.424;-98.496;2024-03-17T00:22:26;7;6;
77515;PMS5003;66627;29.424;-98.496;2024-03-17T00:24:51;7;7;
77515;PMS5003;66627;29.424;-98.496;2024-03-17T00:27:16;8;5;
77515;PMS5003;66627;29.424;-98.496;2024-03-17T00:29:41;7;7;
77515;PMS5003;66627;29.424;-98.496;2024-03-17T00:32:07;9;7;
77515;PMS5003;66627;29.424;-98.496;2024-03-17T00:34:31;9;8;
77515;PMS5003;66627;29.424;-98.496;2024-03-17T00:36:56;11;11;
77515;PMS5003;66627;29.424;-98.496;2024-03-17T00:39:21;8;8;
77515;PMS5003;66627;29.424;-98.496;2024-03-17T00:41:46;10;7;
77515;PMS5003;66627;29.424;-98.496;2024-03-17T00:44:12;10;10;
77515;PMS5003;66627;29.424;-98.496;2024-03-17T00:46:37;10;9;
77515;PMS5003;66627;29.424;-98.496;2024-03-17T00:49:02;10;10;
77515;PMS5003;66627;29.424;-98.496;2024-03-17T00:51:28;14;14;
77515;PMS5003;66627;29.424;-98.496;2024-03-17T00:53:52;18;16;
77515;PMS5003;66627;29.424;-98.496;2024-03-17T00:56:18;30;28;
77515;PMS5003;66627;29.424;-98.496;2024-03-17T00:58:43;19;18;
77515;PMS5003;66627;29.424;-98.496;2024-03-17T01:01:08;11;10;
77515;PMS5003;66627;29.424;-98.496;2024-03-17T01:03:34;9;9;
77515;PMS5003;66627;29.424;-98.496;2024-03-17T01:06:02;8;8;
77515;PMS5003;66627;29.424;-98.496;2024-03-17T01:08:25;11;11;
77515;PMS5003;66627;29.424;-98.496;2024-03-17T01:10:51;10;10;
77515;PMS5003;66627;29.424;-98.496;2024-03-17T01:13:17;9;9;
77515;PMS5003;66627;29.424;-98.496;2024-03-17T01:15:42;10;10;
77515;PMS5003;66627;29.424;-98.496;2024-03-17T01:18:07;13;10;
77515;PMS5003;66627;29.424;-98.496;2024-03-17T01:20:32;18;18;
77515;PMS5003;66627;29.424;-98.496;2024-03-17T01:22:58;14;12;
77515;PMS5003;66627;29.424;-98.496;2024-03-17T01:25:23;13;10;
77515;PMS5003;66627;29.424;-98.496;2024-03-17T01:27:49;11;9;
77515;PMS5003;66627;29.424;-98.496;2024-03-17T01:30:14;12;12;
77515;PMS5003;66627;29.424;-98.496;2024-03-17T01:32:40;13;13;
77515;PMS5003;66627;29.424;-98.496;2024-03-17T01:35:05;35;30;
77515;PMS5003;66627;29.424;-98.496;2024-03-17T01:37:31;20;18;
77515;PMS5003;66627;29.424;-98.496;2024-03-17T01:39:56;11;11;
77515;PMS5003;66627;29.424;-98.496;2024-03-17T01:42:22;9;9;
77515;PMS5003;66627;29.424;-98.496;2024-03-17T01:44:47;11;11;
77515;PMS5003;66627;29.424;-98.496;2024-03-17T01:47:12;11;11;
77515;PMS5003;66627;29.424;-98.496;2024-03-17T01:49:38;10;10;
77515;PMS5003;66627;29.424;-98.496;2024-03-17T01:52:04;10;10;
77515;PMS5003;66627;29.424;-98.496;2024-03-17T01:54:29;9;9;
77515;PMS5003;66627;29.424;-98.496;2024-03-17T01:56:54;12;12;
77515;PMS5003;66627;29.424;-98.496;2024-03-17T01:59:19;13;12;
77515;PMS5003;66627;29.424;-98.496;2024-03-17T02:01:44;12;12;
77515;PMS5003;66627;29.424;-98.496;2024-03-17T02:04:09;12;12;
77515;PMS5003;66627;29.424;-98.496;2024-03-17T02:06:35;10;9;
77515;PMS5003;66627;29.424;-98.496;2024-03-17T02:09:00;13;13;
77515;PMS5003;66627;29.424;-98.496;2024-03-17T02:11:25;13;12;
77515;PMS5003;66627;29.424;-98.496;2024-03-17T02:13:50;11;9;
77515;PMS5003;66627;29.424;-98.496;2024-03-17T02:16:15;11;11;
77515;PMS5003;66627;29.424;-98.496;2024-03-17T02:18:40;10;10;
77515;PMS5003;66627;29.424;-98.496;2024-03-17T02:21:05;9;9;
77515;PMS5003;66627;29.424;-98.496;2024-03-17T02:23:33;11;10;
77515;PMS5003;66627;29.424;-98.496;2024-03-17T02:25:55;11;7;
77515;PMS5003;66627;29.424;-98.496;2024-03-17T02:28:20;9;9;
77515;PMS5003;66627;29.424;-98.496;2024-03-17T02:30:46;12;10;
77515;PMS5003;66627;29.424;-98.496;2024-03-17T02:33:12;17;16;
77515;PMS5003;66627;29.424;-98.496;2024-03-17T02:35:38;15;15;
77515;PMS5003;66627;29.424;-98.496;2024-03-17T02:38:03;16;16;
77515;PMS5003;66627;29.424;-98.496;2024-03-17T02:40:28;19;17;
77515;PMS5003;66627;29.424;-98.496;2024-03-17T02:42:54;20;17;
77515;PMS5003;66627;29.424;-98.496;2024-03-17T02:45:19;19;19;
77515;PMS5003;66627;29.424;-98.496;2024-03-17T02:47:45;18;17;
77515;PMS5003;66627;29.424;-98.496;2024-03-17T02:50:10;18;16;
77515;PMS5003;66627;29.424;-98.496;2024-03-17T02:52:36;18;18;
77515;PMS5003;66627;29.424;-98.496;2024-03-17T02:55:02;23;21;
77515;PMS5003;66627;29.424;-98.496;2024-03-17T02:57:26;27;27;
77515;PMS5003;66627;29.424;-98.496;2024-03-17T02:59:52;23;21;
77515;PMS5003;66627;29.424;-98.496;2024-03-17T03:02:18;20;18;
77515;PMS5003;66627;29.424;-98.496;2024-03-17T03:04:43;22;19;
77515;PMS5003;66627;29.424;-98.496;2024-03-17T03:07:09;21;19;
77515;PMS5003;66627;29.424;-98.496;2024-03-17T03:09:35;23;21;
77515;PMS5003;66627;29.424;-98.496;2024-03-17T03:12:00;20;20;
77515;PMS5003;66627;29.424;-98.496;2024-03-17T03:14:26;25;24;
77515;PMS5003;66627;29.424;-98.496;2024-03-17T03:16:52;23;23;
77515;PMS5003;66627;29.424;-98.496;2024-03-17T03:19:17;21;21;
77515;PMS5003;66627;29.424;-98.496;2024-03-17T03:21:42;23;21;
77515;PMS5003;66627;29.424;-98.496;2024-03-17T03:24:07;28;23;
77515;PMS5003;66627;29.424;-98.496;2024-03-17T03:26:33;22;22;
77515;PMS5003;66627;29.424;-98.496;2024-03-17T03:28:58;23;19;
77515;PMS5003;66627;29.424;-98.496;2024-03-17T03:31:24;29;26;
77515;PMS5003;66627;29.424;-98.496;2024-03-17T03:33:49;27;22;
77515;PMS5003;66627;29.424;-98.496;2024-03-17T03:36:15;23;23;
77515;PMS5003;66627;29.424;-98.496;2024-03-17T03:38:41;28;22;
77515;PMS5003;66627;29.424;-98.496;2024-03-17T03:41:07;22;22;
77515;PMS5003;66627;29.424;-98.496;2024-03-17T03:43:31;24;21;
77515;PMS5003;66627;29.424;-98.496;2024-03-17T03:45:57;27;22;
77515;PMS5003;66627;29.424;-98.496;2024-03-17T03:48:22;22;21;
77515;PMS5003;66627;29.424;-98.496;2024-03-17T03:50:48;23;23;
77515;PMS5003;66627;29.424;-98.496;2024-03-17T03:53:13;20;20;
77515;PMS5003;66627;29.424;-98.496;2024-03-17T03:55:39;23;20;
77515;PMS5003;66627;29.424;-98.496;2024-03-17T03:58:04;23;20;
77515;PMS5003;66627;29.424;-98.496;2024-03-17T04:00:30;24;23;
77515;PMS5003;66627;29.424;-98.496;2024-03-17T04:02:55;25;25;
77515;PMS5003;66627;29.424;-98.496;2024-03-17T04:05:20;28;25;
77515;PMS5003;66627;29.424;-98.496;2024-03-17T04:07:46;24;21;
77515;PMS5003;66627;29.424;-98.496;2024-03-17T04:10:12;25;23;
77515;PMS5003;66627;29.424;-98.496;2024-03-17T04:12:38;29;26;
77515;PMS5003;66627;29.424;-98.496;2024-03-17T04:15:03;26;24;
77515;PMS5003;66627;29.424;-98.496;2024-03-17T04:17:28;22;22;
77515;PMS5003;66627;29.424;-98.496;2024-03-17T04:19:53;23;22;
77515;PMS5003;66627;29.424;-98.496;2024-03-17T04:22:19;20;17;
77515;PMS5003;66627;29.424;-98.496;2024-03-17T04:24:44;26;24;
77515;PMS5003;66627;29.424;-98.496;2024-03-17T04:27:09;27;24;
77515;PMS5003;66627;29.424;-98.496;2024-03-17T04:29:34;24;23;
77515;PMS5003;66627;29.424;-98.496;2024-03-17T04:32:00;27;27;
77515;PMS5003;66627;29.424;-98.496;2024-03-17T04:34:25;25;25;
77515;PMS5003;66627;29.424;-98.496;2024-03-17T04:36:52;22;21;
77515;PMS5003;66627;29.424;-98.496;2024-03-17T04:39:17;25;22;
77515;PMS5003;66627;29.424;-98.496;2024-03-17T04:41:42;22;22;
77515;PMS5003;66627;29.424;-98.496;2024-03-17T04:44:07;32;25;
77515;PMS5003;66627;29.424;-98.496;2024-03-17T04:46:33;27;23;
77515;PMS5003;66627;29.424;-98.496;2024-03-17T04:48:58;22;21;
77515;PMS5003;66627;29.424;-98.496;2024-03-17T04:51:24;23;23;
77515;PMS5003;66627;29.424;-98.496;2024-03-17T04:53:48;24;20;
77515;PMS5003;66627;29.424;-98.496;2024-03-17T04:56:14;24;22;
77515;PMS5003;66627;29.424;-98.496;2024-03-17T04:58:40;21;20;
77515;PMS5003;66627;29.424;-98.496;2024-03-17T05:01:05;22;21;
77515;PMS5003;66627;29.424;-98.496;2024-03-17T05:03:30;27;23;
77515;PMS5003;66627;29.424;-98.496;2024-03-17T05:05:59;22;22;
77515;PMS5003;66627;29.424;-98.496;2024-03-17T05:08:21;18;17;
77515;PMS5003;66627;29.424;-98.496;2024-03-17T05:10:47;20;19;
77515;PMS5003;66627;29.424;-98.496;2024-03-17T05:13:13;22;21;
77515;PMS5003;66627;29.424;-98.496;2024-03-17T05:15:37;21;20;
77515;PMS5003;66627;29.424;-98.496;2024-03-17T05:18:03;20;20;
77515;PMS5003;66627;29.424;-98.496;2024-03-17T05:20:29;22;18;
77515;PMS5003;66627;29.424;-98.496;2024-03-17T05:22:54;21;20;
77515;PMS5003;66627;29.424;-98.496;2024-03-17T05:25:20;20;19;
77515;PMS5003;66627;29.424;-98.496;2024-03-17T05:27:46;16;15;
77515;PMS5003;66627;29.424;-98.496;2024-03-17T05:30:12;21;18;
77515;PMS5003;66627;29.424;-98.496;2024-03-17T05:32:37;17;15;
77515;PMS5003;66627;29.424;-98.496;2024-03-17T05:35:02;20;17;
77515;PMS5003;66627;29.424;-98.496;2024-03-17T05:37:28;16;14;
77515;PMS5003;66627;29.424;-98.496;2024-03-17T05:39:53;23;18;
77515;PMS5003;66627;29.424;-98.496;2024-03-17T05:42:19;18;17;
77515;PMS5003;66627;29.424;-98.496;2024-03-17T05:44:45;26;24;
77515;PMS5003;66627;29.424;-98.496;2024-03-17T05:47:10;23;19;
77515;PMS5003;66627;29.424;-98.496;2024-03-17T05:49:35;21;21;
77515;PMS5003;66627;29.424;-98.496;2024-03-17T05:52:00;25;21;
77515;PMS5003;66627;29.424;-98.496;2024-03-17T05:54:26;20;18;
77515;PMS5003;66627;29.424;-98.496;2024-03-17T05:56:51;21;20;
77515;PMS5003;66627;29.424;-98.496;2024-03-17T05:59:17;17;17;
77515;PMS5003;66627;29.424;-98.496;2024-03-17T06:01:42;18;17;
77515;PMS5003;66627;29.424;-98.496;2024-03-17T06:06:34;17;15;
77515;PMS5003;66627;29.424;-98.496;2024-03-17T06:08:59;22;19;
77515;PMS5003;66627;29.424;-98.496;2024-03-17T06:11:24;21;18;
77515;PMS5003;66627;29.424;-98.496;2024-03-17T06:13:49;19;16;
77515;PMS5003;66627;29.424;-98.496;2024-03-17T06:16:14;18;17;
77515;PMS5003;66627;29.424;-98.496;2024-03-17T06:18:41;21;18;
77515;PMS5003;66627;29.424;-98.496;2024-03-17T06:21:06;21;18;
77515;PMS5003;66627;29.424;-98.496;2024-03-17T06:23:31;21;18;
77515;PMS5003;66627;29.424;-98.496;2024-03-17T06:25:56;23;19;
77515;PMS5003;66627;29.424;-98.496;2024-03-17T06:28:22;24;22;
77515;PMS5003;66627;29.424;-98.496;2024-03-17T06:33:13;25;24;
77515;PMS5003;66627;29.424;-98.496;2024-03-17T06:35:38;26;22;
77515;PMS5003;66627;29.424;-98.496;2024-03-17T06:38:03;20;19;
77515;PMS5003;66627;29.424;-98.496;2024-03-17T06:40:29;25;21;
77515;PMS5003;66627;29.424;-98.496;2024-03-17T06:42:55;25;22;
77515;PMS5003;66627;29.424;-98.496;2024-03-17T06:45:20;19;19;
77515;PMS5003;66627;29.424;-98.496;2024-03-17T06:47:46;20;19;
77515;PMS5003;66627;29.424;-98.496;2024-03-17T06:50:11;27;26;
77515;PMS5003;66627;29.424;-98.496;2024-03-17T06:52:41;30;24;
77515;PMS5003;66627;29.424;-98.496;2024-03-17T06:55:01;31;28;
77515;PMS5003;66627;29.424;-98.496;2024-03-17T06:57:27;28;25;
77515;PMS5003;66627;29.424;-98.496;2024-03-17T06:59:52;34;26;
77515;PMS5003;66627;29.424;-98.496;2024-03-17T07:02:18;27;25;
77515;PMS5003;66627;29.424;-98.496;2024-03-17T07:04:44;26;26;
77515;PMS5003;66627;29.424;-98.496;2024-03-17T07:07:09;21;18;
77515;PMS5003;66627;29.424;-98.496;2024-03-17T07:09:35;22;21;
77515;PMS5003;66627;29.424;-98.496;2024-03-17T07:12:00;18;18;
77515;PMS5003;66627;29.424;-98.496;2024-03-17T07:14:25;16;14;
77515;PMS5003;66627;29.424;-98.496;2024-03-17T07:16:50;24;16;
77515;PMS5003;66627;29.424;-98.496;2024-03-17T07:19:17;17;14;
77515;PMS5003;66627;29.424;-98.496;2024-03-17T07:21:42;22;22;
77515;PMS5003;66627;29.424;-98.496;2024-03-17T07:24:07;19;17;
77515;PMS5003;66627;29.424;-98.496;2024-03-17T07:26:33;22;18;
77515;PMS5003;66627;29.424;-98.496;2024-03-17T07:28:58;23;21;
77515;PMS5003;66627;29.424;-98.496;2024-03-17T07:31:24;24;21;
77515;PMS5003;66627;29.424;-98.496;2024-03-17T07:33:49;30;28;
77515;PMS5003;66627;29.424;-98.496;2024-03-17T07:36:14;31;30;
77515;PMS5003;66627;29.424;-98.496;2024-03-17T07:38:40;21;21;
77515;PMS5003;66627;29.424;-98.496;2024-03-17T07:41:06;18;17;
77515;PMS5003;66627;29.424;-98.496;2024-03-17T07:43:31;17;17;
77515;PMS5003;66627;29.424;-98.496;2024-03-17T07:45:58;19;17;
77515;PMS5003;66627;29.424;-98.496;2024-03-17T07:48:23;14;14;
77515;PMS5003;66627;29.424;-98.496;2024-03-17T07:53:12;21;19;
77515;PMS5003;66627;29.424;-98.496;2024-03-17T07:55:38;19;14;
77515;PMS5003;66627;29.424;-98.496;2024-03-17T07:58:04;24;24;
77515;PMS5003;66627;29.424;-98.496;2024-03-17T08:00:30;19;14;
77515;PMS5003;66627;29.424;-98.496;2024-03-17T08:02:56;20;19;
77515;PMS5003;66627;29.424;-98.496;2024-03-17T08:05:21;15;14;
77515;PMS5003;66627;29.424;-98.496;2024-03-17T08:07:46;18;15;
77515;PMS5003;66627;29.424;-98.496;2024-03-17T08:10:12;13;13;
77515;PMS5003;66627;29.424;-98.496;2024-03-17T08:12:38;10;10;
77515;PMS5003;66627;29.424;-98.496;2024-03-17T08:15:03;9;9;
77515;PMS5003;66627;29.424;-98.496;2024-03-17T08:17:29;8;8;
77515;PMS5003;66627;29.424;-98.496;2024-03-17T08:19:54;10;7;
77515;PMS5003;66627;29.424;-98.496;2024-03-17T08:22:20;8;7;
77515;PMS5003;66627;29.424;-98.496;2024-03-17T08:24:45;8;6;
77515;PMS5003;66627;29.424;-98.496;2024-03-17T08:27:10;7;7;
77515;PMS5003;66627;29.424;-98.496;2024-03-17T08:29:35;6;5;
77515;PMS5003;66627;29.424;-98.496;2024-03-17T08:32:06;5;5;
77515;PMS5003;66627;29.424;-98.496;2024-03-17T08:34:26;5;5;
77515;PMS5003;66627;29.424;-98.496;2024-03-17T08:36:51;5;5;
77515;PMS5003;66627;29.424;-98.496;2024-03-17T08:39:16;6;6;
77515;PMS5003;66627;29.424;-98.496;2024-03-17T08:41:41;5;5;
77515;PMS5003;66627;29.424;-98.496;2024-03-17T08:44:06;6;5;
77515;PMS5003;66627;29.424;-98.496;2024-03-17T08:46:32;4;4;
77515;PMS5003;66627;29.424;-98.496;2024-03-17T08:48:57;5;5;
77515;PMS5003;66627;29.424;-98.496;2024-03-17T08:51:23;3;3;
77515;PMS5003;66627;29.424;-98.496;2024-03-17T08:53:47;4;3;
77515;PMS5003;66627;29.424;-98.496;2024-03-17T08:56:12;3;3;
77515;PMS5003;66627;29.424;-98.496;2024-03-17T08:58:37;6;6;
77515;PMS5003;66627;29.424;-98.496;2024-03-17T09:01:03;4;4;
77515;PMS5003;66627;29.424;-98.496;2024-03-17T09:03:27;3;3;
77515;PMS5003;66627;29.424;-98.496;2024-03-17T09:08:19;3;3;
77515;PMS5003;66627;29.424;-98.496;2024-03-17T09:10:43;1;1;
77515;PMS5003;66627;29.424;-98.496;2024-03-17T09:13:13;3;3;
77515;PMS5003;66627;29.424;-98.496;2024-03-17T09:15:33;3;3;
77515;PMS5003;66627;29.424;-98.496;2024-03-17T09:17:59;1;1;
77515;PMS5003;66627;29.424;-98.496;2024-03-17T09:20:24;2;2;
77515;PMS5003;66627;29.424;-98.496;2024-03-17T09:22:49;1;1;
77515;PMS5003;66627;29.424;-98.496;2024-03-17T09:25:14;2;2;
77515;PMS5003;66627;29.424;-98.496;2024-03-17T09:27:40;3;3;
77515;PMS5003;66627;29.424;-98.496;2024-03-17T09:30:04;1;1;
77515;PMS5003;66627;29.424;-98.496;2024-03-17T09:32:29;3;3;
77515;PMS5003;66627;29.424;-98.496;2024-03-17T09:34:54;3;2;
77515;PMS5003;66627;29.424;-98.496;2024-03-17T09:37:19;2;2;
77515;PMS5003;66627;29.424;-98.496;2024-03-17T09:39:47;4;3;
77515;PMS5003;66627;29.424;-98.496;2024-03-17T09:42:17;2;2;
77515;PMS5003;66627;29.424;-98.496;2024-03-17T09:44:35;2;2;
77515;PMS5003;66627;29.424;-98.496;2024-03-17T09:47:00;3;1;
77515;PMS5003;66627;29.424;-98.496;2024-03-17T09:49:26;2;2;
77515;PMS5003;66627;29.424;-98.496;2024-03-17T09:51:50;2;2;
77515;PMS5003;66627;29.424;-98.496;2024-03-17T09:54:17;2;2;
77515;PMS5003;66627;29.424;-98.496;2024-03-17T09:56:40;3;3;
77515;PMS5003;66627;29.424;-98.496;2024-03-17T09:59:06;2;2;
77515;PMS5003;66627;29.424;-98.496;2024-03-17T10:01:31;5;4;
77515;PMS5003;66627;29.424;-98.496;2024-03-17T10:03:56;3;3;
77515;PMS5003;66627;29.424;-98.496;2024-03-17T10:06:22;3;3;
77515;PMS5003;66627;29.424;-98.496;2024-03-17T10:08:46;0;0;
77515;PMS5003;66627;29.424;-98.496;2024-03-17T10:11:12;3;3;
77515;PMS5003;66627;29.424;-98.496;2024-03-17T10:13:36;3;3;
77515;PMS5003;66627;29.424;-98.496;2024-03-17T10:16:02;3;2;
77515;PMS5003;66627;29.424;-98.496;2024-03-17T10:18:27;3;3;
77515;PMS5003;66627;29.424;-98.496;2024-03-17T10:20:52;2;2;
77515;PMS5003;66627;29.424;-98.496;2024-03-17T10:23:23;5;3;
77515;PMS5003;66627;29.424;-98.496;2024-03-17T10:25:43;3;3;
77515;PMS5003;66627;29.424;-98.496;2024-03-17T10:28:10;2;2;
77515;PMS5003;66627;29.424;-98.496;2024-03-17T10:30:33;4;4;
77515;PMS5003;66627;29.424;-98.496;2024-03-17T10:32:58;2;2;
77515;PMS5003;66627;29.424;-98.496;2024-03-17T10:35:30;2;2;
77515;PMS5003;66627;29.424;-98.496;2024-03-17T10:40:13;5;5;
77515;PMS5003;66627;29.424;-98.496;2024-03-17T10:42:38;3;3;
77515;PMS5003;66627;29.424;-98.496;2024-03-17T10:45:04;4;2;
77515;PMS5003;66627;29.424;-98.496;2024-03-17T10:47:29;6;4;
77515;PMS5003;66627;29.424;-98.496;2024-03-17T10:49:54;4;4;
77515;PMS5003;66627;29.424;-98.496;2024-03-17T10:52:19;4;4;
77515;PMS5003;66627;29.424;-98.496;2024-03-17T10:54:45;3;3;
77515;PMS5003;66627;29.424;-98.496;2024-03-17T10:57:16;4;2;
77515;PMS5003;66627;29.424;-98.496;2024-03-17T10:59:38;5;4;
77515;PMS5003;66627;29.424;-98.496;2024-03-17T11:02:00;4;3;
77515;PMS5003;66627;29.424;-98.496;2024-03-17T11:04:25;4;4;
77515;PMS5003;66627;29.424;-98.496;2024-03-17T11:06:50;4;4;
77515;PMS5003;66627;29.424;-98.496;2024-03-17T11:09:15;5;5;
77515;PMS5003;66627;29.424;-98.496;2024-03-17T11:11:40;9;7;
77515;PMS5003;66627;29.424;-98.496;2024-03-17T11:16:30;4;3;
77515;PMS5003;66627;29.424;-98.496;2024-03-17T11:18:56;5;4;
77515;PMS5003;66627;29.424;-98.496;2024-03-17T11:21:21;6;6;
77515;PMS5003;66627;29.424;-98.496;2024-03-17T11:23:54;10;5;
77515;PMS5003;66627;29.424;-98.496;2024-03-17T11:26:10;7;7;
77515;PMS5003;66627;29.424;-98.496;2024-03-17T11:28:45;10;10;
77515;PMS5003;66627;29.424;-98.496;2024-03-17T11:31:01;15;9;
77515;PMS5003;66627;29.424;-98.496;2024-03-17T11:35:51;10;10;
77515;PMS5003;66627;29.424;-98.496;2024-03-17T11:40:41;8;8;
77515;PMS5003;66627;29.424;-98.496;2024-03-17T11:43:06;8;8;
77515;PMS5003;66627;29.424;-98.496;2024-03-17T11:45:32;4;4;
77515;PMS5003;66627;29.424;-98.496;2024-03-17T11:47:57;5;5;
77515;PMS5003;66627;29.424;-98.496;2024-03-17T11:50:22;4;4;
77515;PMS5003;66627;29.424;-98.496;2024-03-17T11:52:47;3;3;
77515;PMS5003;66627;29.424;-98.496;2024-03-17T11:55:16;5;5;
77515;PMS5003;66627;29.424;-98.496;2024-03-17T11:57:37;6;5;
77515;PMS5003;66627;29.424;-98.496;2024-03-17T12:00:03;8;5;
77515;PMS5003;66627;29.424;-98.496;2024-03-17T12:02:28;4;4;
77515;PMS5003;66627;29.424;-98.496;2024-03-17T12:04:53;6;6;
77515;PMS5003;66627;29.424;-98.496;2024-03-17T12:07:19;4;4;
77515;PMS5003;66627;29.424;-98.496;2024-03-17T12:09:45;6;5;
77515;PMS5003;66627;29.424;-98.496;2024-03-17T12:12:10;4;3;
77515;PMS5003;66627;29.424;-98.496;2024-03-17T12:14:35;3;3;
77515;PMS5003;66627;29.424;-98.496;2024-03-17T12:17:00;1;1;
77515;PMS5003;66627;29.424;-98.496;2024-03-17T12:19:25;3;2;
77515;PMS5003;66627;29.424;-98.496;2024-03-17T12:21:50;1;1;
77515;PMS5003;66627;29.424;-98.496;2024-03-17T12:24:15;1;1;
77515;PMS5003;66627;29.424;-98.496;2024-03-17T12:26:40;0;0;
77515;PMS5003;66627;29.424;-98.496;2024-03-17T12:29:05;1;1;
77515;PMS5003;66627;29.424;-98.496;2024-03-17T12:31:30;1;1;
77515;PMS5003;66627;29.424;-98.496;2024-03-17T12:33:55;1;1;
77515;PMS5003;66627;29.424;-98.496;2024-03-17T12:36:20;1;1;
77515;PMS5003;66627;29.424;-98.496;2024-03-17T12:38:45;3;3;
77515;PMS5003;66627;29.424;-98.496;2024-03-17T12:43:36;2;2;
77515;PMS5003;66627;29.424;-98.496;2024-03-17T12:46:01;1;1;
77515;PMS5003;66627;29.424;-98.496;2024-03-17T12:48:26;1;1;
77515;PMS5003;66627;29.424;-98.496;2024-03-17T12:50:57;1;1;
77515;PMS5003;66627;29.424;-98.496;2024-03-17T12:53:17;0;0;
77515;PMS5003;66627;29.424;-98.496;2024-03-17T12:55:42;3;0;
77515;PMS5003;66627;29.424;-98.496;2024-03-17T12:58:07;1;1;
77515;PMS5003;66627;29.424;-98.496;2024-03-17T13:00:32;0;0;
77515;PMS5003;66627;29.424;-98.496;2024-03-17T13:02:57;1;1;
77515;PMS5003;66627;29.424;-98.496;2024-03-17T13:05:22;3;3;
77515;PMS5003;66627;29.424;-98.496;2024-03-17T13:07:47;3;3;
77515;PMS5003;66627;29.424;-98.496;2024-03-17T13:10:14;2;2;
77515;PMS5003;66627;29.424;-98.496;2024-03-17T13:12:37;2;2;
77515;PMS5003;66627;29.424;-98.496;2024-03-17T13:15:03;4;2;
77515;PMS5003;66627;29.424;-98.496;2024-03-17T13:17:28;3;3;
77515;PMS5003;66627;29.424;-98.496;2024-03-17T13:19:53;4;2;
77515;PMS5003;66627;29.424;-98.496;2024-03-17T13:22:18;2;2;
77515;PMS5003;66627;29.424;-98.496;2024-03-17T13:24:43;4;3;
77515;PMS5003;66627;29.424;-98.496;2024-03-17T13:27:08;3;3;
77515;PMS5003;66627;29.424;-98.496;2024-03-17T13:29:34;3;2;
77515;PMS5003;66627;29.424;-98.496;2024-03-17T13:31:58;3;3;
77515;PMS5003;66627;29.424;-98.496;2024-03-17T13:34:24;2;1;
77515;PMS5003;66627;29.424;-98.496;2024-03-17T13:36:52;1;1;
77515;PMS5003;66627;29.424;-98.496;2024-03-17T13:39:14;3;3;
77515;PMS5003;66627;29.424;-98.496;2024-03-17T13:41:39;2;2;
77515;PMS5003;66627;29.424;-98.496;2024-03-17T13:44:04;5;4;
77515;PMS5003;66627;29.424;-98.496;2024-03-17T13:46:29;3;3;
77515;PMS5003;66627;29.424;-98.496;2024-03-17T13:48:55;2;2;
77515;PMS5003;66627;29.424;-98.496;2024-03-17T13:51:20;3;3;
77515;PMS5003;66627;29.424;-98.496;2024-03-17T13:53:45;1;1;
77515;PMS5003;66627;29.424;-98.496;2024-03-17T13:56:11;1;1;
77515;PMS5003;66627;29.424;-98.496;2024-03-17T13:58:35;4;4;
77515;PMS5003;66627;29.424;-98.496;2024-03-17T14:01:01;4;1;
77515;PMS5003;66627;29.424;-98.496;2024-03-17T14:03:25;4;4;
77515;PMS5003;66627;29.424;-98.496;2024-03-17T14:05:51;4;3;
77515;PMS5003;66627;29.424;-98.496;2024-03-17T14:08:20;4;4;
77515;PMS5003;66627;29.424;-98.496;2024-03-17T14:10:41;4;4;
77515;PMS5003;66627;29.424;-98.496;2024-03-17T14:13:06;5;5;
77515;PMS5003;66627;29.424;-98.496;2024-03-17T14:15:33;3;3;
77515;PMS5003;66627;29.424;-98.496;2024-03-17T14:18:01;6;6;
77515;PMS5003;66627;29.424;-98.496;2024-03-17T14:20:21;3;3;
77515;PMS5003;66627;29.424;-98.496;2024-03-17T14:22:47;5;4;
77515;PMS5003;66627;29.424;-98.496;2024-03-17T14:25:15;4;4;
77515;PMS5003;66627;29.424;-98.496;2024-03-17T14:27:37;5;5;
77515;PMS5003;66627;29.424;-98.496;2024-03-17T14:30:03;6;6;
77515;PMS5003;66627;29.424;-98.496;2024-03-17T14:32:27;2;2;
77515;PMS5003;66627;29.424;-98.496;2024-03-17T14:34:52;4;4;
77515;PMS5003;66627;29.424;-98.496;2024-03-17T14:37:18;4;4;
77515;PMS5003;66627;29.424;-98.496;2024-03-17T14:39:43;5;5;
77515;PMS5003;66627;29.424;-98.496;2024-03-17T14:42:08;6;6;
77515;PMS5003;66627;29.424;-98.496;2024-03-17T14:44:34;6;6;
77515;PMS5003;66627;29.424;-98.496;2024-03-17T14:46:58;5;5;
77515;PMS5003;66627;29.424;-98.496;2024-03-17T14:49:23;3;3;
77515;PMS5003;66627;29.424;-98.496;2024-03-17T14:51:49;3;3;
77515;PMS5003;66627;29.424;-98.496;2024-03-17T14:54:14;2;2;
77515;PMS5003;66627;29.424;-98.496;2024-03-17T14:56:39;3;3;
77515;PMS5003;66627;29.424;-98.496;2024-03-17T14:59:04;4;4;
77515;PMS5003;66627;29.424;-98.496;2024-03-17T15:01:29;3;3;
77515;PMS5003;66627;29.424;-98.496;2024-03-17T15:03:54;2;2;
77515;PMS5003;66627;29.424;-98.496;2024-03-17T15:06:20;2;2;
77515;PMS5003;66627;29.424;-98.496;2024-03-17T15:08:44;0;0;
77515;PMS5003;66627;29.424;-98.496;2024-03-17T15:11:10;5;3;
77515;PMS5003;66627;29.424;-98.496;2024-03-17T15:13:36;2;1;
77515;PMS5003;66627;29.424;-98.496;2024-03-17T15:16:00;2;1;
77515;PMS5003;66627;29.424;-98.496;2024-03-17T15:18:25;2;2;
77515;PMS5003;66627;29.424;-98.496;2024-03-17T15:20:51;3;3;
77515;PMS5003;66627;29.424;-98.496;2024-03-17T15:23:15;2;2;
77515;PMS5003;66627;29.424;-98.496;2024-03-17T15:25:41;2;1;
77515;PMS5003;66627;29.424;-98.496;2024-03-17T15:28:06;2;2;
77515;PMS5003;66627;29.424;-98.496;2024-03-17T15:30:31;3;3;
77515;PMS5003;66627;29.424;-98.496;2024-03-17T15:32:55;2;2;
77515;PMS5003;66627;29.424;-98.496;2024-03-17T15:35:21;2;2;
77515;PMS5003;66627;29.424;-98.496;2024-03-17T15:37:46;2;2;
77515;PMS5003;66627;29.424;-98.496;2024-03-17T15:40:11;2;2;
77515;PMS5003;66627;29.424;-98.496;2024-03-17T15:42:36;1;1;
77515;PMS5003;66627;29.424;-98.496;2024-03-17T15:45:01;1;1;
77515;PMS5003;66627;29.424;-98.496;2024-03-17T15:47:26;2;2;
77515;PMS5003;66627;29.424;-98.496;2024-03-17T15:49:52;3;3;
77515;PMS5003;66627;29.424;-98.496;2024-03-17T15:52:17;1;1;
77515;PMS5003;66627;29.424;-98.496;2024-03-17T15:54:42;3;3;
77515;PMS5003;66627;29.424;-98.496;2024-03-17T15:57:07;2;2;
77515;PMS5003;66627;29.424;-98.496;2024-03-17T15:59:32;1;1;
77515;PMS5003;66627;29.424;-98.496;2024-03-17T16:01:57;2;1;
77515;PMS5003;66627;29.424;-98.496;2024-03-17T16:04:22;1;1;
77515;PMS5003;66627;29.424;-98.496;2024-03-17T16:06:47;2;2;
77515;PMS5003;66627;29.424;-98.496;2024-03-17T16:09:12;1;1;
77515;PMS5003;66627;29.424;-98.496;2024-03-17T16:11:37;0;0;